Time;durP1;ratioP1;P1;durP2;ratioP2;P2;SDS_P1;SDS_P2;PMS_P1;PMS_P2;Temp;Humidity;BMP_temperature;BMP_pressure;BME280_temperature;BME280_humidity;BME280_pressure;Samples;Min_cycle;Max_cycle;Signal;HPM_P1;HPM_P2
2022/11/26 00:04:43;;;;;;;;;;;;;;;;;;10498493;28;19979;-64
2022/11/26 00:09:45;;;;;;;;;;;;;;;;;;10499577;28;19932;-64
2022/11/26 00:14:47;;;;;;;;;;;;;;;;;;10481115;28;20367;-64
2022/11/26 00:19:49;;;;;;;;;;;;;;;;;;10497928;28;19924;-64
2022/11/26 00:24:51;;;;;;;;;;;;;;;;;;10497681;28;20448;-64
2022/11/26 00:29:53;;;;;;;;;;;;;;;;;;10498997;28;19924;-64
2022/11/26 00:34:55;;;;;;;;;;;;;;;;;;10498986;28;19969;-64
2022/11/26 00:39:57;;;;;;;;;;;;;;;;;;10498260;28;19970;-64
2022/11/26 00:44:59;;;;;;;;;;;;;;;;;;10497492;28;19928;-65
2022/11/26 00:50:01;;;;;;;;;;;;;;;;;;10497375;28;20321;-64
2022/11/26 00:55:03;;;;;;;;;;;;;;;;;;10498654;28;19928;-65
2022/11/26 01:00:05;;;;;;;;;;;;;;;;;;10498593;28;19932;-64
2022/11/26 01:05:08;;;;;;;;;;;;;;;;;;10497429;28;19924;-65
2022/11/26 01:10:10;;;;;;;;;;;;;;;;;;10505906;28;19950;-65
2022/11/26 01:15:12;;;;;;;;;;;;;;;;;;10506484;28;19925;-65
2022/11/26 01:20:15;;;;;;;;;;;;;;;;;;10504192;28;19924;-64
2022/11/26 01:25:17;;;;;;;;;;;;;;;;;;10506044;28;19931;-64
2022/11/26 01:30:19;;;;;;;;;;;;;;;;;;10504384;28;20326;-64
2022/11/26 01:35:21;;;;;;;;;;;;;;;;;;10504958;28;20342;-64
2022/11/26 01:40:23;;;;;;;;;;;;;;;;;;10504616;28;19925;-64
2022/11/26 01:45:25;;;;;;;;;;;;;;;;;;10505250;28;19929;-64
2022/11/26 01:50:30;;;;;;;;;;;;;;;;;;10504540;28;20367;-65
2022/11/26 01:55:32;;;;;;;;;;;;;;;;;;10503405;28;20302;-64
2022/11/26 02:00:34;;;;;;;;;;;;;;;;;;10503543;28;19928;-64
2022/11/26 02:05:37;;;;;;;;;;;;;;;;;;10503850;28;20406;-65
2022/11/26 02:10:39;;;;;;;;;;;;;;;;;;10502712;28;19939;-65
2022/11/26 02:15:41;;;;;;;;;;;;;;;;;;10503173;28;19925;-65
2022/11/26 02:20:43;;;;;;;;;;;;;;;;;;10503100;28;19925;-64
2022/11/26 02:25:45;;;;;;;;;;;;;;;;;;10502946;28;19925;-64
2022/11/26 02:30:48;;;;;;;;;;;;;;;;;;10470750;28;19925;-64
2022/11/26 02:35:50;;;;;;;;;;;;;;;;;;10502674;28;19924;-64
2022/11/26 02:40:52;;;;;;;;;;;;;;;;;;10502572;28;19978;-65
2022/11/26 02:45:54;;;;;;;;;;;;;;;;;;10501777;28;19982;-65
2022/11/26 02:50:56;;;;;;;;;;;;;;;;;;10501349;28;20048;-65
2022/11/26 02:55:59;;;;;;;;;;;;;;;;;;10502517;28;19924;-65
2022/11/26 03:01:01;;;;;;;;;;;;;;;;;;10500256;28;19924;-65
2022/11/26 03:06:03;;;;;;;;;;;;;;;;;;10482003;28;19938;-65
2022/11/26 03:11:05;;;;;;;;;;;;;;;;;;10500523;28;19989;-65
2022/11/26 03:16:07;;;;;;;;;;;;;;;;;;10501125;28;19924;-65
2022/11/26 03:21:09;;;;;;;;;;;;;;;;;;10500610;28;19974;-65
2022/11/26 03:26:11;;;;;;;;;;;;;;;;;;10500517;28;19925;-65
2022/11/26 03:31:13;;;;;;;;;;;;;;;;;;10499049;28;19924;-65
2022/11/26 03:36:15;;;;;;;;;;;;;;;;;;10458843;28;20294;-65
2022/11/26 03:41:17;;;;;;;;;;;;;;;;;;10459365;28;19925;-65
2022/11/26 03:46:19;;;;;;;;;;;;;;;;;;10492681;28;19970;-65
2022/11/26 03:51:21;;;;;;;;;;;;;;;;;;10500186;28;20030;-65
2022/11/26 03:56:23;;;;;;;;;;;;;;;;;;10499390;28;19951;-65
2022/11/26 04:01:26;;;;;;;;;;;;;;;;;;10498525;28;19978;-65
2022/11/26 04:06:28;;;;;;;;;;;;;;;;;;10498228;28;19925;-65
2022/11/26 04:11:30;;;;;;;;;;;;;;;;;;10498224;28;19925;-65
2022/11/26 04:16:32;;;;;;;;;;;;;;;;;;10498859;28;19978;-65
2022/11/26 04:21:34;;;;;;;;;;;;;;;;;;10497888;28;19924;-65
2022/11/26 04:26:36;;;;;;;;;;;;;;;;;;10497752;28;19986;-65
2022/11/26 04:31:38;;;;;;;;;;;;;;;;;;10498432;28;20379;-65
2022/11/26 04:36:40;;;;;;;;;;;;;;;;;;10498378;28;20466;-65
2022/11/26 04:41:43;;;;;;;;;;;;;;;;;;10497904;28;19925;-65
2022/11/26 04:46:45;;;;;;;;;;;;;;;;;;10498200;28;20398;-65
2022/11/26 04:51:47;;;;;;;;;;;;;;;;;;10496284;28;19971;-65
2022/11/26 04:56:49;;;;;;;;;;;;;;;;;;10497841;28;19924;-65
2022/11/26 05:01:51;;;;;;;;;;;;;;;;;;10496736;28;20371;-65
2022/11/26 05:06:53;;;;;;;;;;;;;;;;;;10497749;28;20295;-65
2022/11/26 05:11:55;;;;;;;;;;;;;;;;;;10498300;28;19928;-65
2022/11/26 05:16:57;;;;;;;;;;;;;;;;;;10495375;28;20265;-65
2022/11/26 05:21:59;;;;;;;;;;;;;;;;;;10496658;28;19924;-65
2022/11/26 05:27:01;;;;;;;;;;;;;;;;;;10495950;28;19924;-65
2022/11/26 05:32:03;;;;;;;;;;;;;;;;;;10497317;28;19978;-65
2022/11/26 05:37:05;;;;;;;;;;;;;;;;;;10497880;28;20015;-65
2022/11/26 05:42:07;;;;;;;;;;;;;;;;;;10479464;28;19925;-65
2022/11/26 05:47:10;;;;;;;;;;;;;;;;;;10496983;28;19925;-65
2022/11/26 05:52:12;;;;;;;;;;;;;;;;;;10499953;28;19970;-65
2022/11/26 05:57:14;;;;;;;;;;;;;;;;;;10504272;28;19978;-65
2022/11/26 06:02:16;;;;;;;;;;;;;;;;;;10503387;28;19924;-65
2022/11/26 06:07:18;;;;;;;;;;;;;;;;;;10504458;28;19954;-65
2022/11/26 06:12:20;;;;;;;;;;;;;;;;;;10504280;28;19932;-65
2022/11/26 06:17:22;;;;;;;;;;;;;;;;;;10502289;28;19924;-65
2022/11/26 06:22:25;;;;;;;;;;;;;;;;;;10502052;28;19928;-65
2022/11/26 06:27:27;;;;;;;;;;;;;;;;;;10502482;28;19931;-65
2022/11/26 06:32:29;;;;;;;;;;;;;;;;;;10487659;22;20338;-62
2022/11/26 06:37:31;;;;;;;;;;;;;;;;;;10422651;28;20310;-62
2022/11/26 06:42:33;;;;;;;;;;;;;;;;;;10461822;28;19932;-63
2022/11/26 06:47:35;;;;;;;;;;;;;;;;;;10459457;28;19924;-62
2022/11/26 06:52:37;;;;;;;;;;;;;;;;;;10461430;28;19924;-62
2022/11/26 06:57:39;;;;;;;;;;;;;;;;;;10458768;28;19951;-62
2022/11/26 07:02:42;;;;;;;;;;;;;;;;;;10457166;28;19940;-62
2022/11/26 07:07:44;;;;;;;;;;;;;;;;;;10460096;28;19951;-62
2022/11/26 07:12:46;;;;;;;;;;;;;;;;;;10460623;28;19931;-62
2022/11/26 07:17:48;;;;;;;;;;;;;;;;;;10457481;28;19979;-62
2022/11/26 07:22:50;;;;;;;;;;;;;;;;;;10459532;28;20315;-62
2022/11/26 07:27:52;;;;;;;;;;;;;;;;;;10459864;28;19925;-62
2022/11/26 07:32:54;;;;;;;;;;;;;;;;;;10440619;28;19951;-62
2022/11/26 07:37:56;;;;;;;;;;;;;;;;;;10450841;28;20383;-62
2022/11/26 07:42:58;;;;;;;;;;;;;;;;;;10459323;28;19925;-62
2022/11/26 07:48:00;;;;;;;;;;;;;;;;;;10458418;28;20252;-62
2022/11/26 07:53:02;;;;;;;;;;;;;;;;;;10445917;28;19932;-62
2022/11/26 07:58:04;;;;;;;;;;;;;;;;;;10431688;28;20383;-62
2022/11/26 08:03:07;;;;;;;;;;;;;;;;;;10426419;28;19925;-62
2022/11/26 08:08:09;;;;;;;;;;;;;;;;;;10416656;28;19929;-62
2022/11/26 08:13:11;;;;;;;;;;;;;;;;;;10417182;28;19925;-62
2022/11/26 08:18:13;;;;;;;;;;;;;;;;;;10430213;28;19925;-62
2022/11/26 08:23:15;;;;;;;;;;;;;;;;;;10457336;28;19924;-62
2022/11/26 08:28:17;;;;;;;;;;;;;;;;;;10452554;28;19929;-62
2022/11/26 08:33:19;;;;;;;;;;;;;;;;;;10455802;28;19925;-62
2022/11/26 08:38:21;;;;;;;;;;;;;;;;;;10456540;28;19925;-62
2022/11/26 08:43:23;;;;;;;;;;;;;;;;;;10456886;28;20375;-62
2022/11/26 08:48:41;;;;;;;;;;;;;;;;;;10457369;28;19931;-62
2022/11/26 08:53:43;;;;;;;;;;;;;;;;;;10428514;28;19929;-64
2022/11/26 08:58:47;;;;;;;;;;;;;;;;;;10415456;28;19925;-62
2022/11/26 09:03:49;;;;;;;;;;;;;;;;;;10417435;28;19926;-63
2022/11/26 09:14:12;;;;;;;;;;;;;;;;;;10448058;28;19932;-62
2022/11/26 09:19:14;;;;;;;;;;;;;;;;;;10456042;28;19928;-62
2022/11/26 09:24:16;;;;;;;;;;;;;;;;;;10415295;28;19925;-62
2022/11/26 09:29:19;;;;;;;;;;;;;;;;;;10421270;28;19925;-63
2022/11/26 09:34:21;;;;;;;;;;;;;;;;;;10434998;28;19925;-62
2022/11/26 09:39:23;;;;;;;;;;;;;;;;;;10439512;28;19926;-67
2022/11/26 09:44:25;;;;;;;;;;;;;;;;;;10422214;28;20392;-67
2022/11/26 09:49:27;;;;;;;;;;;;;;;;;;10422024;28;19980;-67
2022/11/26 09:54:29;;;;;;;;;;;;;;;;;;10420811;28;20028;-67
2022/11/26 09:59:31;;;;;;;;;;;;;;;;;;10421026;28;19995;-61
2022/11/26 10:04:33;;;;;;;;;;;;;;;;;;10422164;28;19929;-61
2022/11/26 10:09:35;;;;;;;;;;;;;;;;;;10421801;28;19925;-61
2022/11/26 10:14:37;;;;;;;;;;;;;;;;;;10455888;28;19925;-61
2022/11/26 10:19:40;;;;;;;;;;;;;;;;;;10459521;28;20334;-61
2022/11/26 10:24:42;;;;;;;;;;;;;;;;;;10462569;28;19924;-61
2022/11/26 10:29:44;;;;;;;;;;;;;;;;;;10426486;28;19929;-61
2022/11/26 10:34:46;;;;;;;;;;;;;;;;;;10458210;28;19924;-61
2022/11/26 10:39:48;;;;;;;;;;;;;;;;;;10461146;28;20322;-61
2022/11/26 10:44:54;;;;;;;;;;;;;;;;;;10459203;28;19976;-61
2022/11/26 10:49:57;;;;;;;;;;;;;;;;;;10457462;28;19924;-61
2022/11/26 10:54:59;;;;;;;;;;;;;;;;;;10442748;28;19925;-61
2022/11/26 11:00:01;;;;;;;;;;;;;;;;;;10428711;28;19925;-61
2022/11/26 11:05:03;;;;;;;;;;;;;;;;;;10418461;28;19925;-61
2022/11/26 11:10:05;;;;;;;;;;;;;;;;;;10418659;28;19929;-61
2022/11/26 11:15:07;;;;;;;;;;;;;;;;;;10441250;28;19925;-61
2022/11/26 11:20:09;;;;;;;;;;;;;;;;;;10459585;28;19924;-61
2022/11/26 11:25:11;;;;;;;;;;;;;;;;;;10459428;28;19925;-61
2022/11/26 11:30:13;;;;;;;;;;;;;;;;;;10455207;28;20504;-61
2022/11/26 11:35:15;;;;;;;;;;;;;;;;;;10447271;28;19925;-61
2022/11/26 11:40:23;;;;;;;;;;;;;;;;;;10434937;28;19925;-61
2022/11/26 11:45:26;;;;;;;;;;;;;;;;;;10456822;28;19924;-61
2022/11/26 11:50:28;;;;;;;;;;;;;;;;;;10456018;28;19948;-61
2022/11/26 11:55:30;;;;;;;;;;;;;;;;;;10457504;28;19925;-61
2022/11/26 12:00:32;;;;;;;;;;;;;;;;;;10453708;28;20032;-61
2022/11/26 12:05:34;;;;;;;;;;;;;;;;;;10453132;28;19938;-61
2022/11/26 12:10:36;;;;;;;;;;;;;;;;;;10415965;28;19924;-61
2022/11/26 12:15:38;;;;;;;;;;;;;;;;;;10416581;28;19929;-65
2022/11/26 12:20:42;;;;;;;;;;;;;;;;;;10414490;28;19925;-61
2022/11/26 12:25:44;;;;;;;;;;;;;;;;;;10450536;28;19933;-61
2022/11/26 12:30:47;;;;;;;;;;;;;;;;;;10421395;28;20430;-61
2022/11/26 12:35:49;;;;;;;;;;;;;;;;;;10415231;28;19925;-65
2022/11/26 12:40:51;;;;;;;;;;;;;;;;;;10415257;28;19925;-65
2022/11/26 12:45:53;;;;;;;;;;;;;;;;;;10416337;28;19925;-65
2022/11/26 12:50:55;;;;;;;;;;;;;;;;;;10416175;28;19936;-65
2022/11/26 12:55:57;;;;;;;;;;;;;;;;;;10415429;28;19933;-65
2022/11/26 13:00:59;;;;;;;;;;;;;;;;;;10416044;28;19925;-65
2022/11/26 13:06:01;;;;;;;;;;;;;;;;;;10424418;28;19925;-65
2022/11/26 13:11:03;;;;;;;;;;;;;;;;;;10424149;28;19925;-65
2022/11/26 13:16:09;;;;;;;;;;;;;;;;;;10424083;28;19925;-65
2022/11/26 13:21:11;;;;;;;;;;;;;;;;;;10423207;28;20269;-65
2022/11/26 13:26:13;;;;;;;;;;;;;;;;;;10423165;28;20395;-65
2022/11/26 13:31:15;;;;;;;;;;;;;;;;;;10423413;28;19925;-65
2022/11/26 13:36:18;;;;;;;;;;;;;;;;;;10422767;28;19925;-65
2022/11/26 13:41:20;;;;;;;;;;;;;;;;;;10422479;28;20376;-61
2022/11/26 13:46:22;;;;;;;;;;;;;;;;;;10423093;28;19952;-61
2022/11/26 13:51:24;;;;;;;;;;;;;;;;;;10422024;28;20028;-61
2022/11/26 13:56:26;;;;;;;;;;;;;;;;;;10420413;28;20319;-61
2022/11/26 14:01:28;;;;;;;;;;;;;;;;;;10420695;28;20371;-61
2022/11/26 14:06:30;;;;;;;;;;;;;;;;;;10419739;28;19931;-61
2022/11/26 14:11:32;;;;;;;;;;;;;;;;;;10420531;28;20011;-61
2022/11/26 14:16:34;;;;;;;;;;;;;;;;;;10421003;28;19991;-62
2022/11/26 14:21:36;;;;;;;;;;;;;;;;;;10420664;28;19968;-61
2022/11/26 14:26:38;;;;;;;;;;;;;;;;;;10419746;28;19925;-62
2022/11/26 14:31:40;;;;;;;;;;;;;;;;;;10417925;28;20351;-62
2022/11/26 14:36:42;;;;;;;;;;;;;;;;;;10417235;28;19972;-61
2022/11/26 14:41:45;;;;;;;;;;;;;;;;;;10417234;28;19936;-61
2022/11/26 14:46:47;;;;;;;;;;;;;;;;;;10417559;28;20214;-62
2022/11/26 14:51:49;;;;;;;;;;;;;;;;;;10419301;28;19925;-61
2022/11/26 14:56:51;;;;;;;;;;;;;;;;;;10419881;28;19934;-62
2022/11/26 15:01:53;;;;;;;;;;;;;;;;;;10419910;28;19925;-61
2022/11/26 15:06:55;;;;;;;;;;;;;;;;;;10414029;28;19937;-61
2022/11/26 15:11:57;;;;;;;;;;;;;;;;;;10448532;28;19925;-61
2022/11/26 15:16:59;;;;;;;;;;;;;;;;;;10449680;28;19925;-61
2022/11/26 15:22:01;;;;;;;;;;;;;;;;;;10431860;28;19925;-61
2022/11/26 15:27:03;;;;;;;;;;;;;;;;;;10450333;28;19929;-62
2022/11/26 15:32:05;;;;;;;;;;;;;;;;;;10414182;28;19929;-61
2022/11/26 15:37:07;;;;;;;;;;;;;;;;;;10415776;28;19995;-61
2022/11/26 15:42:10;;;;;;;;;;;;;;;;;;10417712;28;19925;-61
2022/11/26 15:47:12;;;;;;;;;;;;;;;;;;10414881;28;20327;-62
2022/11/26 15:52:14;;;;;;;;;;;;;;;;;;10428982;28;19924;-61
2022/11/26 15:57:16;;;;;;;;;;;;;;;;;;10457061;28;19928;-61
2022/11/26 16:02:18;;;;;;;;;;;;;;;;;;10454267;28;19925;-61
2022/11/26 16:07:20;;;;;;;;;;;;;;;;;;10420980;28;19979;-61
2022/11/26 16:12:22;;;;;;;;;;;;;;;;;;10413912;28;19925;-61
2022/11/26 16:17:24;;;;;;;;;;;;;;;;;;10443303;28;19928;-61
2022/11/26 16:22:26;;;;;;;;;;;;;;;;;;10458105;28;19929;-62
2022/11/26 16:27:29;;;;;;;;;;;;;;;;;;10457915;28;19925;-61
2022/11/26 16:32:31;;;;;;;;;;;;;;;;;;10418987;28;20386;-61
2022/11/26 16:37:33;;;;;;;;;;;;;;;;;;10415642;28;19925;-61
2022/11/26 16:42:35;;;;;;;;;;;;;;;;;;10414753;28;20391;-62
2022/11/26 16:47:38;;;;;;;;;;;;;;;;;;10416322;28;19925;-61
2022/11/26 16:52:40;;;;;;;;;;;;;;;;;;10416120;28;19929;-61
2022/11/26 16:57:42;;;;;;;;;;;;;;;;;;10415200;28;19972;-61
2022/11/26 17:02:44;;;;;;;;;;;;;;;;;;10416015;28;20438;-61
2022/11/26 17:07:46;;;;;;;;;;;;;;;;;;10453563;28;19936;-61
2022/11/26 17:12:49;;;;;;;;;;;;;;;;;;10445664;28;19972;-61
2022/11/26 17:17:51;;;;;;;;;;;;;;;;;;10450503;28;19925;-61
2022/11/26 17:22:53;;;;;;;;;;;;;;;;;;10456146;28;20380;-61
2022/11/26 17:27:55;;;;;;;;;;;;;;;;;;10450733;28;19929;-61
2022/11/26 17:32:57;;;;;;;;;;;;;;;;;;10454446;28;20376;-62
2022/11/26 17:37:59;;;;;;;;;;;;;;;;;;10449895;28;19933;-61
2022/11/26 17:43:01;;;;;;;;;;;;;;;;;;10414129;28;20374;-61
2022/11/26 17:48:03;;;;;;;;;;;;;;;;;;10448455;28;19925;-61
2022/11/26 17:53:05;;;;;;;;;;;;;;;;;;10421988;28;19925;-61
2022/11/26 17:58:07;;;;;;;;;;;;;;;;;;10421898;28;20322;-61
2022/11/26 18:03:09;;;;;;;;;;;;;;;;;;10420975;28;19979;-61
2022/11/26 18:08:11;;;;;;;;;;;;;;;;;;10422118;28;19925;-61
2022/11/26 18:13:14;;;;;;;;;;;;;;;;;;10456800;28;19933;-61
2022/11/26 18:18:16;;;;;;;;;;;;;;;;;;10462986;28;19932;-61
2022/11/26 18:23:18;;;;;;;;;;;;;;;;;;10461388;28;20406;-61
2022/11/26 18:28:20;;;;;;;;;;;;;;;;;;10420368;28;20383;-61
2022/11/26 18:33:22;;;;;;;;;;;;;;;;;;10420533;28;19964;-61
2022/11/26 18:38:27;;;;;;;;;;;;;;;;;;10419319;28;19983;-61
2022/11/26 18:43:30;;;;;;;;;;;;;;;;;;10401238;28;19978;-61
2022/11/26 18:48:32;;;;;;;;;;;;;;;;;;10455059;22;19932;-61
2022/11/26 18:53:34;;;;;;;;;;;;;;;;;;10419878;28;20402;-61
2022/11/26 18:58:36;;;;;;;;;;;;;;;;;;10418813;28;19932;-61
2022/11/26 19:03:38;;;;;;;;;;;;;;;;;;10419440;28;19935;-61
2022/11/26 19:08:44;;;;;;;;;;;;;;;;;;10434482;28;20017;-61
2022/11/26 19:13:46;;;;;;;;;;;;;;;;;;10418917;28;19926;-61
2022/11/26 19:18:49;;;;;;;;;;;;;;;;;;10419380;28;19976;-61
2022/11/26 19:23:51;;;;;;;;;;;;;;;;;;10417489;28;19925;-61
2022/11/26 19:28:53;;;;;;;;;;;;;;;;;;10418282;28;20395;-61
2022/11/26 19:33:56;;;;;;;;;;;;;;;;;;10418109;28;20355;-61
2022/11/26 19:38:58;;;;;;;;;;;;;;;;;;10418476;28;19925;-61
2022/11/26 19:44:02;;;;;;;;;;;;;;;;;;10417686;28;19932;-61
2022/11/26 19:49:05;;;;;;;;;;;;;;;;;;10416890;28;19925;-61
2022/11/26 19:54:07;;;;;;;;;;;;;;;;;;10428601;28;19986;-61
2022/11/26 19:59:11;;;;;;;;;;;;;;;;;;10458327;28;20410;-61
2022/11/26 20:04:13;;;;;;;;;;;;;;;;;;10443726;28;19928;-61
2022/11/26 20:09:15;;;;;;;;;;;;;;;;;;10417981;28;19925;-61
2022/11/26 20:14:17;;;;;;;;;;;;;;;;;;10426259;28;20337;-61
2022/11/26 20:19:19;;;;;;;;;;;;;;;;;;10423517;28;19925;-61
2022/11/26 20:24:21;;;;;;;;;;;;;;;;;;10415883;28;19925;-61
2022/11/26 20:29:24;;;;;;;;;;;;;;;;;;10415218;28;20334;-61
2022/11/26 20:34:26;;;;;;;;;;;;;;;;;;10416073;28;19925;-61
2022/11/26 20:39:28;;;;;;;;;;;;;;;;;;10414931;28;19999;-61
2022/11/26 20:44:30;;;;;;;;;;;;;;;;;;10416564;28;19926;-61
2022/11/26 20:49:32;;;;;;;;;;;;;;;;;;10415773;28;19926;-61
2022/11/26 20:54:37;;;;;;;;;;;;;;;;;;10416203;28;19979;-61
2022/11/26 20:59:39;;;;;;;;;;;;;;;;;;10417065;28;19925;-61
2022/11/26 21:04:42;;;;;;;;;;;;;;;;;;10436712;28;19979;-61
2022/11/26 21:09:45;;;;;;;;;;;;;;;;;;10457060;28;19928;-61
2022/11/26 21:14:47;;;;;;;;;;;;;;;;;;10456428;28;19924;-61
2022/11/26 21:19:49;;;;;;;;;;;;;;;;;;10426825;28;19925;-61
2022/11/26 21:24:51;;;;;;;;;;;;;;;;;;10419404;28;20054;-61
2022/11/26 21:29:53;;;;;;;;;;;;;;;;;;10448452;28;20338;-61
2022/11/26 21:34:55;;;;;;;;;;;;;;;;;;10464665;28;19935;-61
2022/11/26 21:39:57;;;;;;;;;;;;;;;;;;10462802;28;19932;-61
2022/11/26 21:44:59;;;;;;;;;;;;;;;;;;10464252;28;19925;-61
2022/11/26 21:50:01;;;;;;;;;;;;;;;;;;10463198;28;19943;-61
2022/11/26 21:55:03;;;;;;;;;;;;;;;;;;10444391;28;19931;-61
2022/11/26 22:00:06;;;;;;;;;;;;;;;;;;10461753;28;19994;-61
2022/11/26 22:05:08;;;;;;;;;;;;;;;;;;10463548;28;19954;-61
2022/11/26 22:10:10;;;;;;;;;;;;;;;;;;10462772;28;19925;-61
2022/11/26 22:15:12;;;;;;;;;;;;;;;;;;10460770;28;19928;-61
2022/11/26 22:20:14;;;;;;;;;;;;;;;;;;10461767;28;19925;-61
2022/11/26 22:25:16;;;;;;;;;;;;;;;;;;10451777;28;20280;-61
2022/11/26 22:30:19;;;;;;;;;;;;;;;;;;10421238;28;19975;-61
2022/11/26 22:35:21;;;;;;;;;;;;;;;;;;10420844;28;19932;-61
2022/11/26 22:40:23;;;;;;;;;;;;;;;;;;10427040;28;19932;-61
2022/11/26 22:45:25;;;;;;;;;;;;;;;;;;10430816;28;19952;-61
2022/11/26 22:50:27;;;;;;;;;;;;;;;;;;10460432;28;20372;-61
2022/11/26 22:55:29;;;;;;;;;;;;;;;;;;10433401;28;19971;-61
2022/11/26 23:00:32;;;;;;;;;;;;;;;;;;10419570;28;19925;-61
2022/11/26 23:05:34;;;;;;;;;;;;;;;;;;10420054;28;19987;-61
2022/11/26 23:10:36;;;;;;;;;;;;;;;;;;10418101;28;19924;-61
2022/11/26 23:15:38;;;;;;;;;;;;;;;;;;10419019;28;19979;-61
2022/11/26 23:20:45;;;;;;;;;;;;;;;;;;10417868;28;20296;-61
2022/11/26 23:25:47;;;;;;;;;;;;;;;;;;10419211;28;19925;-61
2022/11/26 23:30:49;;;;;;;;;;;;;;;;;;10418250;28;20372;-61
2022/11/26 23:35:51;;;;;;;;;;;;;;;;;;10422514;28;19931;-61
2022/11/26 23:40:53;;;;;;;;;;;;;;;;;;10459742;28;19925;-61
2022/11/26 23:45:55;;;;;;;;;;;;;;;;;;10458848;28;19978;-61
2022/11/26 23:50:57;;;;;;;;;;;;;;;;;;10435729;28;20276;-61
2022/11/26 23:55:59;;;;;;;;;;;;;;;;;;10418007;28;19979;-61
